createdAt,value
2023-05-04T00:01:18.578Z,102623.59
2023-05-04T00:03:47.097Z,102616.59
2023-05-04T00:06:15.832Z,102619.22
2023-05-04T00:08:45.597Z,102623.66
2023-05-04T00:11:13.643Z,102624.53
2023-05-04T00:13:41.690Z,102620.16
2023-05-04T00:16:10.997Z,102618.63
2023-05-04T00:18:39.256Z,102614.19
2023-05-04T00:21:07.255Z,102616.97
2023-05-04T00:23:35.299Z,102615.06
2023-05-04T00:26:04.832Z,102609.00
2023-05-04T00:28:32.745Z,102608.91
2023-05-04T00:31:00.827Z,102609.66
2023-05-04T00:33:28.827Z,102604.41
2023-05-04T00:35:56.692Z,102609.75
2023-05-04T00:38:24.637Z,102603.47
2023-05-04T00:40:52.797Z,102604.50
2023-05-04T00:43:22.104Z,102600.47
2023-05-04T00:45:50.053Z,102597.81
2023-05-04T00:48:18.453Z,102595.53
2023-05-04T00:50:46.514Z,102596.38
2023-05-04T00:53:14.534Z,102602.28
2023-05-04T00:55:42.512Z,102596.13
2023-05-04T00:58:12.986Z,102592.53
2023-05-04T01:00:42.716Z,102596.97
2023-05-04T01:03:11.207Z,102587.50
2023-05-04T01:05:44.568Z,102593.63
2023-05-04T01:08:16.409Z,102579.63
2023-05-04T01:10:51.130Z,102583.50
2023-05-04T01:13:22.068Z,102584.28
2023-05-04T01:15:51.972Z,102586.00
2023-05-04T01:18:19.995Z,102583.25
2023-05-04T01:20:47.916Z,102588.63
2023-05-04T01:23:17.696Z,102582.88
2023-05-04T01:25:57.467Z,102578.25
2023-05-04T01:28:35.132Z,102583.50
2023-05-04T01:31:04.716Z,102574.72
2023-05-04T01:33:33.199Z,102579.28
2023-05-04T01:36:01.699Z,102573.00
2023-05-04T01:38:31.190Z,102574.38
2023-05-04T01:40:59.176Z,102569.78
2023-05-04T01:43:27.101Z,102572.34
2023-05-04T01:45:55.152Z,102568.75
2023-05-04T01:48:23.472Z,102570.03
2023-05-04T01:50:51.535Z,102563.69
2023-05-04T01:53:19.581Z,102565.53
2023-05-04T01:55:48.865Z,102567.50
2023-05-04T01:58:18.394Z,102563.22
2023-05-04T02:00:46.696Z,102575.63
2023-05-04T02:03:15.029Z,102568.47
2023-05-04T02:05:43.102Z,102550.59
2023-05-04T02:08:11.022Z,102552.31
2023-05-04T02:10:40.378Z,102559.72
2023-05-04T02:13:09.854Z,102558.25
2023-05-04T02:15:37.909Z,102556.56
2023-05-04T02:18:05.849Z,102570.97
2023-05-04T02:20:34.045Z,102560.47
2023-05-04T02:23:02.014Z,102554.81
2023-05-04T02:25:29.939Z,102551.06
2023-05-04T02:27:57.871Z,102562.53
2023-05-04T02:30:27.403Z,102549.47
2023-05-04T02:32:55.376Z,102556.44
2023-05-04T02:35:23.725Z,102552.34
2023-05-04T02:37:51.898Z,102553.50
2023-05-04T02:40:19.876Z,102547.03
2023-05-04T02:42:47.857Z,102548.78
2023-05-04T02:45:16.013Z,102547.81
2023-05-04T02:47:45.308Z,102545.28
2023-05-04T02:50:13.554Z,102547.09
2023-05-04T02:52:41.827Z,102551.84
2023-05-04T02:55:10.684Z,102552.69
2023-05-04T02:57:38.720Z,102548.22
2023-05-04T03:00:08.232Z,102539.34
2023-05-04T03:02:36.136Z,102540.16
2023-05-04T03:05:06.627Z,102543.00
2023-05-04T03:07:34.859Z,102539.56
2023-05-04T03:10:02.818Z,102541.44
2023-05-04T03:12:30.898Z,102534.59
2023-05-04T03:14:58.923Z,102535.50
2023-05-04T03:17:26.857Z,102538.91
2023-05-04T03:19:54.837Z,102524.03
2023-05-04T03:22:24.143Z,102524.19
2023-05-04T03:24:52.217Z,102525.75
2023-05-04T03:27:20.207Z,102530.31
2023-05-04T03:29:48.285Z,102523.97
2023-05-04T03:32:16.287Z,102519.72
2023-05-04T03:34:45.897Z,102522.34
2023-05-04T03:37:14.216Z,102529.25
2023-05-04T03:39:43.590Z,102524.28
2023-05-04T03:42:12.038Z,102524.41
2023-05-04T03:44:40.005Z,102521.38
2023-05-04T03:47:09.027Z,102522.56
2023-05-04T03:49:37.179Z,102530.50
2023-05-04T03:52:05.232Z,102528.41
2023-05-04T03:54:33.432Z,102528.22
2023-05-04T03:57:04.444Z,102529.13
2023-05-04T03:59:32.432Z,102530.16
2023-05-04T04:02:01.249Z,102529.28
2023-05-04T04:04:29.406Z,102531.78
2023-05-04T04:06:57.410Z,102529.94
2023-05-04T04:09:25.375Z,102538.91
2023-05-04T04:11:53.344Z,102529.94
2023-05-04T04:14:22.583Z,102526.19
2023-05-04T04:16:50.433Z,102531.56
2023-05-04T04:19:18.449Z,102533.47
2023-05-04T04:21:46.539Z,102528.97
2023-05-04T04:24:14.605Z,102536.13
2023-05-04T04:26:42.778Z,102534.97
2023-05-04T04:29:10.851Z,102540.03
2023-05-04T04:31:40.429Z,102540.50
2023-05-04T04:34:08.627Z,102538.75
2023-05-04T04:36:36.494Z,102537.75
2023-05-04T04:39:05.992Z,102533.09
2023-05-04T04:41:33.983Z,102532.72
2023-05-04T04:44:02.409Z,102532.41
2023-05-04T04:46:30.298Z,102529.81
2023-05-04T04:48:59.649Z,102526.66
2023-05-04T04:51:27.601Z,102524.72
2023-05-04T04:53:55.462Z,102523.47
2023-05-04T04:56:23.388Z,102528.53
2023-05-04T04:58:51.815Z,102527.50
2023-05-04T05:01:19.883Z,102521.16
2023-05-04T05:03:49.170Z,102524.16
2023-05-04T05:06:18.706Z,102521.91
2023-05-04T05:08:46.780Z,102525.16
2023-05-04T05:11:14.628Z,102526.47
2023-05-04T05:13:42.467Z,102528.25
2023-05-04T05:16:10.482Z,102520.16
2023-05-04T05:18:38.484Z,102527.00
2023-05-04T05:21:07.375Z,102532.84
2023-05-04T05:23:36.731Z,102535.22
2023-05-04T05:26:04.603Z,102530.69
2023-05-04T05:28:32.477Z,102531.31
2023-05-04T05:31:00.454Z,102526.84
2023-05-04T05:33:28.479Z,102531.34
2023-05-04T05:35:56.755Z,102537.16
2023-05-04T05:38:24.673Z,102538.25
2023-05-04T05:40:53.992Z,102535.94
2023-05-04T05:43:21.842Z,102532.72
2023-05-04T05:45:49.847Z,102546.50
2023-05-04T05:48:17.796Z,102525.94
2023-05-04T05:50:45.705Z,102517.75
2023-05-04T05:53:13.623Z,102515.94
2023-05-04T05:55:41.597Z,102516.88
2023-05-04T05:58:10.849Z,102520.47
2023-05-04T06:00:38.990Z,102521.88
2023-05-04T06:03:07.882Z,102518.47
2023-05-04T06:05:36.103Z,102519.06
2023-05-04T06:08:03.989Z,102531.41
2023-05-04T06:10:31.974Z,102533.03
2023-05-04T06:12:59.894Z,102520.16
2023-05-04T06:15:29.297Z,102528.59
2023-05-04T06:17:57.382Z,102529.69
2023-05-04T06:20:25.273Z,102518.75
2023-05-04T06:22:53.138Z,102517.78
2023-05-04T06:25:21.283Z,102519.16
2023-05-04T06:27:49.166Z,102515.44
2023-05-04T06:30:17.923Z,102509.66
2023-05-04T06:32:47.311Z,102513.72
2023-05-04T06:35:15.328Z,102514.41
2023-05-04T06:37:43.398Z,102514.84
2023-05-04T06:40:12.326Z,102511.63
2023-05-04T06:42:40.577Z,102511.63
2023-05-04T06:45:09.583Z,102515.31
2023-05-04T06:47:37.855Z,102509.47
2023-05-04T06:50:10.587Z,102513.78
2023-05-04T06:52:41.254Z,102506.31
2023-05-04T06:55:10.014Z,102508.34
2023-05-04T06:57:37.973Z,102500.22
2023-05-04T07:00:07.318Z,102493.66
2023-05-04T07:02:35.841Z,102490.06
2023-05-04T07:05:04.496Z,102481.28
2023-05-04T07:07:34.212Z,102482.78
2023-05-04T07:10:02.424Z,102485.75
2023-05-04T07:12:30.507Z,102483.81
2023-05-04T07:14:58.380Z,102478.03
2023-05-04T07:17:26.847Z,102472.44
2023-05-04T07:19:54.813Z,102475.56
2023-05-04T07:22:22.932Z,102472.63
2023-05-04T07:24:52.377Z,102463.06
2023-05-04T07:27:20.346Z,102464.13
2023-05-04T07:29:48.354Z,102461.38
2023-05-04T07:32:16.269Z,102470.31
2023-05-04T07:34:46.472Z,102461.41
2023-05-04T07:37:16.087Z,102455.81
2023-05-04T07:39:44.051Z,102446.78
2023-05-04T07:42:13.416Z,102442.69
2023-05-04T07:44:41.612Z,102444.19
2023-05-04T07:47:09.801Z,102437.09
2023-05-04T07:49:37.774Z,102443.22
2023-05-04T07:52:06.267Z,102450.19
2023-05-04T07:54:34.168Z,102449.88
2023-05-04T07:57:03.408Z,102440.84
2023-05-04T07:59:33.232Z,102444.69
2023-05-04T08:02:01.505Z,102439.69
2023-05-04T08:04:29.486Z,102433.44
2023-05-04T08:06:57.579Z,102437.47
2023-05-04T08:09:25.470Z,102435.50
2023-05-04T08:11:53.313Z,102437.38
2023-05-04T08:14:21.564Z,102430.00
2023-05-04T08:16:51.105Z,102432.34
2023-05-04T08:19:20.496Z,102429.91
2023-05-04T08:21:48.698Z,102429.31
2023-05-04T08:24:18.332Z,102425.06
2023-05-04T08:26:55.693Z,102421.75
2023-05-04T08:29:31.994Z,102416.72
2023-05-04T08:32:01.373Z,102421.22
2023-05-04T08:34:29.328Z,102421.75
2023-05-04T08:36:58.239Z,102416.16
2023-05-04T08:39:26.258Z,102408.06
2023-05-04T08:41:54.116Z,102416.91
2023-05-04T08:44:23.063Z,102414.59
2023-05-04T08:46:53.443Z,102398.44
2023-05-04T08:49:24.376Z,102401.81
2023-05-04T08:51:53.210Z,102407.41
2023-05-04T08:54:22.281Z,102398.44
2023-05-04T08:56:55.093Z,102395.06
2023-05-04T08:59:24.577Z,102389.63
2023-05-04T09:01:57.081Z,102394.44
2023-05-04T09:04:29.507Z,102386.13
2023-05-04T09:06:58.803Z,102388.19
2023-05-04T09:09:29.881Z,102383.22
2023-05-04T09:11:58.639Z,102379.47
2023-05-04T09:14:34.096Z,102381.25
2023-05-04T09:17:02.563Z,102372.78
2023-05-04T09:19:34.786Z,102376.41
2023-05-04T09:22:02.893Z,102379.97
2023-05-04T09:24:31.500Z,102382.63
2023-05-04T09:27:10.715Z,102382.38
2023-05-04T09:29:40.546Z,102369.75
2023-05-04T09:32:14.529Z,102371.91
2023-05-04T09:34:54.260Z,102365.00
2023-05-04T09:37:22.734Z,102358.44
2023-05-04T09:39:52.484Z,102359.84
2023-05-04T09:42:21.504Z,102360.56
2023-05-04T09:45:01.874Z,102359.50
2023-05-04T09:47:34.667Z,102350.94
2023-05-04T09:50:14.818Z,102348.88
2023-05-04T09:52:44.592Z,102356.28
2023-05-04T09:55:14.576Z,102354.28
2023-05-04T09:57:43.548Z,102352.97
2023-05-04T10:00:13.600Z,102359.59
2023-05-04T10:02:42.511Z,102361.84
2023-05-04T10:05:17.456Z,102339.41
2023-05-04T10:07:45.881Z,102341.97
2023-05-04T10:10:14.844Z,102339.97
2023-05-04T10:12:42.857Z,102338.91
2023-05-04T10:15:12.334Z,102334.97
2023-05-04T10:17:59.824Z,102334.41
2023-05-04T10:20:41.830Z,102342.41
2023-05-04T10:23:33.076Z,102328.06
2023-05-04T10:26:31.928Z,102329.00
2023-05-04T10:29:13.297Z,102324.69
2023-05-04T10:31:42.243Z,102321.75
2023-05-04T10:34:10.643Z,102319.19
2023-05-04T10:36:41.688Z,102316.66
2023-05-04T10:39:20.395Z,102314.25
2023-05-04T10:42:04.027Z,102312.28
2023-05-04T10:44:33.944Z,102306.63
2023-05-04T10:47:04.332Z,102299.91
2023-05-04T10:49:32.924Z,102304.06
2023-05-04T10:52:13.748Z,102301.03
2023-05-04T10:54:44.122Z,102301.03
2023-05-04T10:57:13.848Z,102283.91
2023-05-04T10:59:43.120Z,102271.59
2023-05-04T11:02:12.020Z,102282.44
2023-05-04T11:04:40.096Z,102271.13
2023-05-04T11:07:09.055Z,102253.56
2023-05-04T11:09:40.799Z,102256.84
2023-05-04T11:12:10.938Z,102260.31
2023-05-04T11:14:43.552Z,102257.28
2023-05-04T11:17:27.370Z,102253.13
2023-05-04T11:19:56.353Z,102245.53
2023-05-04T11:22:27.152Z,102259.00
2023-05-04T11:24:57.189Z,102243.22
2023-05-04T11:27:26.420Z,102241.25
2023-05-04T11:29:58.322Z,102249.72
2023-05-04T11:32:36.616Z,102247.59
2023-05-04T11:35:06.393Z,102240.22
2023-05-04T11:37:40.317Z,102234.25
2023-05-04T11:40:14.773Z,102228.88
2023-05-04T11:42:43.692Z,102227.09
2023-05-04T11:45:14.674Z,102241.00
2023-05-04T11:47:42.871Z,102237.97
2023-05-04T11:50:12.712Z,102236.47
2023-05-04T11:52:41.818Z,102233.91
2023-05-04T11:55:11.547Z,102228.22
2023-05-04T11:57:41.757Z,102228.34
2023-05-04T12:00:11.324Z,102220.56
2023-05-04T12:02:39.311Z,102225.84
2023-05-04T12:05:13.776Z,102211.69
2023-05-04T12:07:41.739Z,102206.81
2023-05-04T12:10:10.350Z,102202.38
2023-05-04T12:12:38.294Z,102206.16
2023-05-04T12:15:08.908Z,102207.91
2023-05-04T12:17:43.203Z,102205.41
2023-05-04T12:20:11.933Z,102202.63
2023-05-04T12:22:39.888Z,102197.91
2023-05-04T12:25:09.309Z,102193.34
2023-05-04T12:27:41.805Z,102183.19
2023-05-04T12:30:12.595Z,102186.50
2023-05-04T12:32:40.510Z,102186.66
2023-05-04T12:35:09.016Z,102182.56
2023-05-04T12:37:38.065Z,102175.44
2023-05-04T12:40:21.083Z,102179.31
2023-05-04T12:42:56.258Z,102174.06
2023-05-04T12:45:25.504Z,102159.50
2023-05-04T12:47:53.433Z,102156.34
2023-05-04T12:50:21.574Z,102152.75
2023-05-04T12:52:49.750Z,102149.91
2023-05-04T12:55:17.692Z,102154.59
2023-05-04T12:57:46.100Z,102156.66
2023-05-04T13:00:15.803Z,102158.28
2023-05-04T13:02:45.243Z,102164.53
2023-05-04T13:05:15.793Z,102154.75
2023-05-04T13:07:43.925Z,102155.63
2023-05-04T13:10:12.432Z,102154.16
2023-05-04T13:12:40.635Z,102138.50
2023-05-04T13:15:10.064Z,102143.78
2023-05-04T13:17:38.036Z,102139.69
2023-05-04T13:20:09.014Z,102134.44
2023-05-04T13:22:37.063Z,102135.56
2023-05-04T13:25:05.905Z,102125.41
2023-05-04T13:27:34.622Z,102127.19
2023-05-04T13:30:03.853Z,102129.00
2023-05-04T13:32:33.099Z,102116.41
2023-05-04T13:35:01.078Z,102122.19
2023-05-04T13:37:30.354Z,102112.53
2023-05-04T13:39:59.524Z,102107.25
2023-05-04T13:42:27.554Z,102103.06
2023-05-04T13:44:55.534Z,102104.13
2023-05-04T13:47:23.761Z,102093.28
2023-05-04T13:49:52.085Z,102103.41
2023-05-04T13:52:19.958Z,102095.59
2023-05-04T13:54:49.523Z,102089.94
2023-05-04T13:57:17.584Z,102081.03
2023-05-04T13:59:58.428Z,102083.84
2023-05-04T14:02:34.065Z,102086.63
2023-05-04T14:05:02.756Z,102078.09
2023-05-04T14:07:30.924Z,102077.38
2023-05-04T14:10:00.513Z,102068.50
2023-05-04T14:12:28.920Z,102059.66
2023-05-04T14:14:57.342Z,102068.75
2023-05-04T14:17:25.460Z,102059.34
2023-05-04T14:19:53.332Z,102055.72
2023-05-04T14:22:21.340Z,102059.81
2023-05-04T14:24:50.499Z,102049.50
2023-05-04T14:27:21.076Z,102055.41
2023-05-04T14:29:49.043Z,102054.59
2023-05-04T14:32:17.277Z,102039.72
2023-05-04T14:34:45.225Z,102035.25
2023-05-04T14:37:13.063Z,102037.94
2023-05-04T14:39:41.278Z,102039.56
2023-05-04T14:42:09.706Z,102041.03
2023-05-04T14:44:39.247Z,102037.59
2023-05-04T14:47:07.945Z,102029.09
2023-05-04T14:49:37.564Z,102024.69
2023-05-04T14:52:05.894Z,102014.47
2023-05-04T14:54:33.964Z,102025.31
2023-05-04T14:57:02.626Z,102022.72
2023-05-04T14:59:30.600Z,102018.44
2023-05-04T15:02:00.011Z,102024.88
2023-05-04T15:04:27.962Z,102025.59
2023-05-04T15:06:58.032Z,102016.47
2023-05-04T15:09:26.027Z,102020.78
2023-05-04T15:11:54.025Z,102019.06
2023-05-04T15:14:22.361Z,102013.03
2023-05-04T15:16:50.322Z,102011.81
2023-05-04T15:19:21.237Z,102014.16
2023-05-04T15:21:50.077Z,102005.00
2023-05-04T15:24:18.334Z,102000.94
2023-05-04T15:26:46.469Z,102004.78
2023-05-04T15:29:14.474Z,102012.81
2023-05-04T15:31:42.386Z,101996.03
2023-05-04T15:34:10.278Z,101993.13
2023-05-04T15:36:39.733Z,101988.16
2023-05-04T15:39:08.338Z,101986.94
2023-05-04T15:41:36.590Z,101991.94
2023-05-04T15:44:07.826Z,101988.91
2023-05-04T15:46:36.180Z,101989.09
2023-05-04T15:49:04.148Z,101990.44
2023-05-04T15:51:32.197Z,101987.50
2023-05-04T15:54:01.839Z,101980.97
2023-05-04T15:56:29.723Z,101979.09
2023-05-04T15:58:57.672Z,101984.34
2023-05-04T16:01:25.648Z,101984.50
2023-05-04T16:03:55.509Z,101986.66
2023-05-04T16:06:23.912Z,101977.63
2023-05-04T16:08:52.089Z,101981.81
2023-05-04T16:11:21.440Z,101974.22
2023-05-04T16:13:49.294Z,101966.88
2023-05-04T16:16:18.430Z,101964.25
2023-05-04T16:18:46.440Z,101960.47
2023-05-04T16:21:15.203Z,101961.53
2023-05-04T16:23:43.226Z,101960.22
2023-05-04T16:26:11.317Z,101963.50
2023-05-04T16:28:41.620Z,101969.22
2023-05-04T16:31:11.834Z,101961.56
2023-05-04T16:33:41.525Z,101968.00
2023-05-04T16:36:10.889Z,101965.22
2023-05-04T16:38:38.743Z,101954.44
2023-05-04T16:41:06.709Z,101953.88
2023-05-04T16:43:34.823Z,101954.22
2023-05-04T16:46:04.635Z,101954.31
2023-05-04T16:48:33.365Z,101952.91
2023-05-04T16:51:01.262Z,101958.81
2023-05-04T16:53:29.111Z,101954.19
2023-05-04T16:55:57.209Z,101945.75
2023-05-04T16:58:25.132Z,101943.28
2023-05-04T17:00:53.062Z,101958.94
2023-05-04T17:03:22.866Z,101955.34
2023-05-04T17:05:51.158Z,101959.91
2023-05-04T17:08:19.741Z,101953.53
2023-05-04T17:10:47.576Z,101970.38
2023-05-04T17:13:15.676Z,101958.28
2023-05-04T17:15:43.893Z,101962.41
2023-05-04T17:18:11.817Z,101945.06
2023-05-04T17:20:41.246Z,101942.03
2023-05-04T17:23:09.176Z,101946.97
2023-05-04T17:25:37.620Z,101944.94
2023-05-04T17:28:06.113Z,101953.34
2023-05-04T17:30:35.750Z,101949.56
2023-05-04T17:33:03.714Z,101953.72
2023-05-04T17:35:31.898Z,101966.16
2023-05-04T17:38:01.296Z,101952.44
2023-05-04T17:40:29.540Z,101956.50
2023-05-04T17:42:57.972Z,101962.97
2023-05-04T17:45:25.897Z,101965.19
2023-05-04T17:47:53.847Z,101962.81
2023-05-04T17:50:22.121Z,101971.28
2023-05-04T17:52:52.973Z,101968.41
2023-05-04T17:55:23.618Z,101963.69
2023-05-04T17:57:52.922Z,101960.72
2023-05-04T18:00:21.817Z,101965.34
2023-05-04T18:02:49.919Z,101967.94
2023-05-04T18:05:18.306Z,101966.38
2023-05-04T18:07:46.252Z,101965.22
2023-05-04T18:10:14.223Z,101968.56
2023-05-04T18:12:43.583Z,101967.22
2023-05-04T18:15:12.026Z,101972.22
2023-05-04T18:17:40.477Z,101970.56
2023-05-04T18:20:10.546Z,101978.94
2023-05-04T18:22:38.603Z,101979.72
2023-05-04T18:25:08.038Z,101975.03
2023-05-04T18:27:36.661Z,101974.44
2023-05-04T18:30:07.116Z,101979.88
2023-05-04T18:32:35.625Z,101975.38
2023-05-04T18:35:03.628Z,101979.72
2023-05-04T18:37:32.195Z,101987.88
2023-05-04T18:40:00.682Z,101984.84
2023-05-04T18:42:28.881Z,101994.50
2023-05-04T18:44:56.806Z,101998.38
2023-05-04T18:47:26.221Z,101995.63
2023-05-04T18:49:56.381Z,101992.34
2023-05-04T18:52:30.515Z,101994.50
2023-05-04T18:54:58.374Z,102004.53
2023-05-04T18:57:26.735Z,101997.78
2023-05-04T18:59:59.121Z,101996.91
2023-05-04T19:02:30.083Z,102001.41
2023-05-04T19:04:58.261Z,101999.81
2023-05-04T19:07:26.348Z,102008.94
2023-05-04T19:09:55.455Z,102007.16
2023-05-04T19:12:23.928Z,102011.66
2023-05-04T19:14:52.087Z,102011.88
2023-05-04T19:17:19.995Z,102006.94
2023-05-04T19:19:49.248Z,102001.94
2023-05-04T19:22:18.133Z,102006.38
2023-05-04T19:24:47.771Z,102000.94
2023-05-04T19:27:15.871Z,102004.00
2023-05-04T19:29:43.732Z,102007.94
2023-05-04T19:32:22.703Z,101999.66
2023-05-04T19:34:53.703Z,102002.28
2023-05-04T19:37:21.906Z,102003.00
2023-05-04T19:39:49.845Z,102001.81
2023-05-04T19:42:18.351Z,102002.72
2023-05-04T19:44:46.249Z,102009.63
2023-05-04T19:47:14.111Z,102001.50
2023-05-04T19:49:42.165Z,102006.38
2023-05-04T19:52:11.545Z,102001.81
2023-05-04T19:54:41.465Z,102005.59
2023-05-04T19:57:10.171Z,102008.13
2023-05-04T19:59:38.676Z,102014.00
2023-05-04T20:02:06.984Z,101993.78
2023-05-04T20:04:35.096Z,101995.19
2023-05-04T20:07:02.975Z,101987.94
2023-05-04T20:09:32.227Z,101997.31
2023-05-04T20:12:00.134Z,101999.84
2023-05-04T20:14:28.058Z,101996.94
2023-05-04T20:16:56.501Z,101986.16
2023-05-04T20:19:24.695Z,101994.66
2023-05-04T20:21:52.549Z,101990.38
2023-05-04T20:24:20.480Z,101988.28
2023-05-04T20:26:49.742Z,101992.66
2023-05-04T20:29:20.997Z,101998.53
2023-05-04T20:31:49.036Z,102000.50
2023-05-04T20:34:18.884Z,101997.03
2023-05-04T20:36:47.250Z,101985.16
2023-05-04T20:39:15.779Z,101990.88
2023-05-04T20:41:43.681Z,101985.91
2023-05-04T20:44:14.375Z,101990.47
2023-05-04T20:46:42.255Z,101988.31
2023-05-04T20:49:10.212Z,101988.72
2023-05-04T20:51:38.369Z,101981.56
2023-05-04T20:54:06.347Z,101983.50
2023-05-04T20:56:34.682Z,101977.59
2023-05-04T20:59:02.591Z,101979.88
2023-05-04T21:01:31.945Z,101979.81
2023-05-04T21:04:00.134Z,101986.72
2023-05-04T21:06:28.218Z,101972.47
2023-05-04T21:08:56.958Z,101979.25
2023-05-04T21:11:24.826Z,101987.75
2023-05-04T21:13:52.705Z,101980.66
2023-05-04T21:16:20.692Z,101985.38
2023-05-04T21:18:50.131Z,101988.69
2023-05-04T21:21:18.053Z,101983.94
2023-05-04T21:23:46.336Z,101981.06
2023-05-04T21:26:16.062Z,101976.63
2023-05-04T21:28:43.988Z,101983.25
2023-05-04T21:31:12.908Z,101973.03
2023-05-04T21:33:40.850Z,101977.44
2023-05-04T21:36:14.190Z,101985.59
2023-05-04T21:38:42.677Z,101983.56
2023-05-04T21:41:12.232Z,101979.31
2023-05-04T21:43:40.389Z,101975.47
2023-05-04T21:46:09.065Z,101982.53
2023-05-04T21:48:37.245Z,101985.22
2023-05-04T21:51:05.282Z,101983.94
2023-05-04T21:53:34.567Z,101992.78
2023-05-04T21:56:02.997Z,101985.97
2023-05-04T21:58:31.331Z,101983.06
2023-05-04T22:00:59.597Z,101984.78
2023-05-04T22:03:29.522Z,101982.56
2023-05-04T22:05:58.711Z,101984.63
2023-05-04T22:08:27.569Z,101988.25
2023-05-04T22:10:58.543Z,101981.75
2023-05-04T22:13:26.929Z,101981.50
2023-05-04T22:15:55.350Z,101972.63
2023-05-04T22:18:23.779Z,101972.34
2023-05-04T22:20:52.005Z,101973.56
2023-05-04T22:23:19.985Z,101972.84
2023-05-04T22:25:47.851Z,101971.25
2023-05-04T22:28:17.129Z,101969.69
2023-05-04T22:30:45.001Z,101979.22
2023-05-04T22:33:12.843Z,101971.50
2023-05-04T22:35:40.749Z,101974.09
2023-05-04T22:38:09.041Z,101971.19
2023-05-04T22:40:40.364Z,101977.84
2023-05-04T22:43:08.623Z,101986.16
2023-05-04T22:45:38.925Z,101986.88
2023-05-04T22:48:06.989Z,101981.09
2023-05-04T22:50:34.949Z,101985.72
2023-05-04T22:53:02.926Z,101975.75
2023-05-04T22:55:30.853Z,101983.41
2023-05-04T22:57:58.739Z,101989.69
2023-05-04T23:00:26.811Z,101983.91
2023-05-04T23:02:56.772Z,101975.53
2023-05-04T23:05:25.038Z,101978.78
2023-05-04T23:07:53.093Z,101979.88
2023-05-04T23:10:21.356Z,101983.13
2023-05-04T23:12:49.527Z,101980.09
2023-05-04T23:15:18.232Z,101975.75
2023-05-04T23:17:46.459Z,101980.00
2023-05-04T23:20:17.019Z,101984.63
2023-05-04T23:22:44.917Z,101976.69
2023-05-04T23:25:12.907Z,101977.13
2023-05-04T23:27:40.995Z,101976.53
2023-05-04T23:30:10.345Z,101973.50
2023-05-04T23:32:38.452Z,101978.94
2023-05-04T23:35:07.917Z,101976.91
2023-05-04T23:37:37.575Z,101981.16
2023-05-04T23:40:06.361Z,101972.34
2023-05-04T23:42:34.481Z,101969.63
2023-05-04T23:45:02.492Z,101964.84
2023-05-04T23:47:30.466Z,101969.47
2023-05-04T23:50:06.452Z,101970.44
2023-05-04T23:52:34.556Z,101971.00
2023-05-04T23:55:04.628Z,101964.94
2023-05-04T23:57:32.525Z,101959.16
